Time;durP1;ratioP1;P1;durP2;ratioP2;P2;SDS_P1;SDS_P2;PMS_P1;PMS_P2;Temp;Humidity;BMP_temperature;BMP_pressure;BME280_temperature;BME280_humidity;BME280_pressure;Samples;Min_cycle;Max_cycle;Signal;HPM_P1;HPM_P2
2024/01/11 00:00:40;;;;;;;33.20;19.00;;;;;;;-3.58;100.00;100484.82;104961;1254;62144;-57
2024/01/11 00:03:08;;;;;;;37.60;18.50;;;;;;;-3.56;100.00;100472.73;105157;1254;60062;-56
2024/01/11 00:05:35;;;;;;;39.80;21.20;;;;;;;-3.56;100.00;100474.50;104732;1254;74808;-56
2024/01/11 00:08:04;;;;;;;39.80;19.80;;;;;;;-3.59;100.00;100473.60;109051;1254;66051;-57
2024/01/11 00:10:31;;;;;;;37.90;19.90;;;;;;;-3.60;100.00;100468.64;105263;1257;71460;-56
2024/01/11 00:12:58;;;;;;;38.10;19.60;;;;;;;-3.62;100.00;100462.98;104752;1259;60685;-56
2024/01/11 00:15:26;;;;;;;32.20;17.40;;;;;;;-3.63;100.00;100469.63;104758;1259;59896;-55
2024/01/11 00:17:53;;;;;;;31.90;16.50;;;;;;;-3.63;100.00;100468.75;104779;1257;71960;-56
2024/01/11 00:20:21;;;;;;;30.40;16.10;;;;;;;-3.61;100.00;100457.23;104869;1261;67739;-57
2024/01/11 00:22:48;;;;;;;34.10;18.50;;;;;;;-3.60;100.00;100447.23;105101;1260;71441;-56
2024/01/11 00:25:15;;;;;;;34.00;18.60;;;;;;;-3.59;100.00;100444.99;105460;1258;60457;-57
2024/01/11 00:27:43;;;;;;;37.10;17.90;;;;;;;-3.58;100.00;100436.95;105658;1259;60635;-57
2024/01/11 00:30:10;;;;;;;36.30;17.70;;;;;;;-3.59;100.00;100428.33;105127;1256;73986;-56
2024/01/11 00:32:37;;;;;;;30.90;18.00;;;;;;;-3.61;100.00;100422.30;105446;1257;65646;-55
2024/01/11 00:35:06;;;;;;;34.40;17.90;;;;;;;-3.65;100.00;100418.89;105046;1256;71440;-55
2024/01/11 00:37:34;;;;;;;31.30;16.90;;;;;;;-3.67;100.00;100427.83;105434;1259;60672;-57
2024/01/11 00:40:01;;;;;;;31.20;16.50;;;;;;;-3.68;100.00;100426.57;105976;1259;60365;-56
2024/01/11 00:42:28;;;;;;;34.20;16.20;;;;;;;-3.67;100.00;100433.78;105167;1253;74285;-56
2024/01/11 00:44:56;;;;;;;31.20;16.20;;;;;;;-3.63;100.00;100435.59;104707;1261;65734;-56
2024/01/11 00:47:23;;;;;;;31.90;16.70;;;;;;;-3.58;100.00;100436.05;105126;1259;72717;-56
2024/01/11 00:49:50;;;;;;;35.70;18.20;;;;;;;-3.55;100.00;100426.29;105059;1254;61742;-56
2024/01/11 00:52:18;;;;;;;31.40;17.60;;;;;;;-3.51;100.00;100420.22;105164;1253;60454;-57
2024/01/11 00:54:45;;;;;;;33.50;17.70;;;;;;;-3.49;100.00;100421.30;105054;1259;73942;-57
2024/01/11 00:57:12;;;;;;;35.30;18.40;;;;;;;-3.50;100.00;100416.21;104815;1259;66930;-57
2024/01/11 00:59:40;;;;;;;31.10;16.00;;;;;;;-3.51;100.00;100420.05;104815;1256;72708;-56
2024/01/11 01:02:07;;;;;;;36.50;18.70;;;;;;;-3.55;100.00;100413.65;105021;1258;60531;-56
2024/01/11 01:04:39;;;;;;;35.60;18.30;;;;;;;-3.57;100.00;100406.23;104837;1259;60691;-56
2024/01/11 01:07:06;;;;;;;35.10;17.60;;;;;;;-3.60;100.00;100404.27;105207;1259;73806;-56
2024/01/11 01:09:34;;;;;;;36.50;19.40;;;;;;;-3.62;100.00;100401.23;104926;1258;67283;-57
2024/01/11 01:12:02;;;;;;;35.10;17.90;;;;;;;-3.64;100.00;100385.05;105279;1253;72805;-57
2024/01/11 01:14:29;;;;;;;30.50;15.60;;;;;;;-3.63;100.00;100381.56;105015;1259;60617;-57
2024/01/11 01:16:56;;;;;;;36.40;18.50;;;;;;;-3.62;100.00;100367.55;105206;1255;60498;-58
2024/01/11 01:19:24;;;;;;;36.30;17.40;;;;;;;-3.61;100.00;100365.64;105136;1259;73761;-56
2024/01/11 01:21:51;;;;;;;34.60;18.10;;;;;;;-3.59;100.00;100368.48;105029;1253;66895;-57
2024/01/11 01:24:19;;;;;;;36.50;19.40;;;;;;;-3.57;100.00;100362.73;104822;1259;72821;-57
2024/01/11 01:26:46;;;;;;;36.20;19.30;;;;;;;-3.56;100.00;100361.34;104963;1258;60520;-57
2024/01/11 01:29:14;;;;;;;33.70;17.90;;;;;;;-3.58;100.00;100355.36;105799;1256;60497;-56
2024/01/11 01:31:41;;;;;;;39.90;19.40;;;;;;;-3.61;100.00;100347.76;105306;1259;71417;-57
2024/01/11 01:34:08;;;;;;;36.20;19.40;;;;;;;-3.65;100.00;100349.27;105003;1257;66002;-57
2024/01/11 01:36:36;;;;;;;43.20;20.10;;;;;;;-3.68;100.00;100350.96;104691;1259;73425;-56
2024/01/11 01:39:03;;;;;;;36.00;17.80;;;;;;;-3.68;100.00;100341.48;104821;1255;60596;-57
2024/01/11 01:41:31;;;;;;;37.30;18.20;;;;;;;-3.67;100.00;100332.91;104840;1256;61210;-57
2024/01/11 01:43:58;;;;;;;34.70;18.30;;;;;;;-3.65;100.00;100327.86;108042;1253;73899;-58
2024/01/11 01:46:26;;;;;;;29.80;17.70;;;;;;;-3.62;100.00;100326.67;104897;1259;65345;-57
2024/01/11 01:48:53;;;;;;;38.90;18.80;;;;;;;-3.61;100.00;100322.14;104880;1259;72642;-57
2024/01/11 01:51:21;;;;;;;38.70;20.40;;;;;;;-3.57;100.00;100312.02;105157;1255;60395;-57
2024/01/11 01:53:51;;;;;;;31.90;18.60;;;;;;;-3.55;100.00;100306.45;104877;1259;60883;-56
2024/01/11 01:56:19;;;;;;;38.20;19.50;;;;;;;-3.56;100.00;100297.30;104926;1254;73368;-57
2024/01/11 01:58:46;;;;;;;40.00;21.60;;;;;;;-3.57;100.00;100291.69;105620;1259;65784;-57
2024/01/11 02:01:14;;;;;;;41.40;20.10;;;;;;;-3.59;100.00;100283.42;104867;1253;71743;-57
2024/01/11 02:03:41;;;;;;;34.10;18.70;;;;;;;-3.62;100.00;100268.09;104850;1254;62435;-57
2024/01/11 02:06:08;;;;;;;35.30;16.70;;;;;;;-3.64;100.00;100256.12;105331;1257;60398;-57
2024/01/11 02:08:36;;;;;;;29.20;15.60;;;;;;;-3.64;100.00;100254.90;105096;1253;72646;-57
2024/01/11 02:11:03;;;;;;;35.30;16.80;;;;;;;-3.62;100.00;100245.98;104912;1256;67612;-58
2024/01/11 02:13:31;;;;;;;32.10;15.60;;;;;;;-3.59;100.00;100241.15;104797;1257;71674;-56
2024/01/11 02:15:59;;;;;;;34.20;18.50;;;;;;;-3.53;100.00;100229.65;105311;1254;60533;-55
2024/01/11 02:18:26;;;;;;;35.30;17.40;;;;;;;-3.50;100.00;100219.17;105071;1255;60442;-55
2024/01/11 02:20:55;;;;;;;40.20;18.60;;;;;;;-3.47;100.00;100218.51;105108;1258;74386;-56
2024/01/11 02:23:24;;;;;;;41.00;20.40;;;;;;;-3.47;100.00;100213.95;105168;1253;66901;-56
2024/01/11 02:25:51;;;;;;;37.60;19.50;;;;;;;-3.49;100.00;100204.09;105556;1254;72704;-56
2024/01/11 02:28:19;;;;;;;36.10;18.30;;;;;;;-3.52;100.00;100197.40;105205;1255;60404;-55
2024/01/11 02:30:46;;;;;;;38.50;20.00;;;;;;;-3.54;100.00;100192.27;106048;1259;60370;-56
2024/01/11 02:33:15;;;;;;;38.70;18.30;;;;;;;-3.55;100.00;100193.46;105004;1253;72615;-56
2024/01/11 02:35:43;;;;;;;34.40;18.10;;;;;;;-3.55;100.00;100186.98;105251;1254;67162;-57
2024/01/11 02:38:14;;;;;;;37.40;18.20;;;;;;;-3.53;100.00;100181.95;105188;1259;71911;-56
2024/01/11 02:40:41;;;;;;;35.90;17.60;;;;;;;-3.50;100.00;100181.46;105104;1257;60562;-55
2024/01/11 02:43:09;;;;;;;40.60;21.10;;;;;;;-3.47;100.00;100172.89;105088;1259;60507;-56
2024/01/11 02:45:37;;;;;;;38.10;19.50;;;;;;;-3.46;100.00;100165.89;107018;1252;73971;-54
2024/01/11 02:48:05;;;;;;;37.70;20.10;;;;;;;-3.46;100.00;100161.86;105243;1252;65234;-56
2024/01/11 02:50:32;;;;;;;32.90;17.70;;;;;;;-3.46;100.00;100154.48;105272;1254;71435;-56
2024/01/11 02:53:00;;;;;;;36.80;18.90;;;;;;;-3.48;100.00;100152.34;104932;1258;60508;-56
2024/01/11 02:55:27;;;;;;;37.90;18.90;;;;;;;-3.51;100.00;100147.23;105004;1259;60333;-56
2024/01/11 02:57:54;;;;;;;31.80;16.40;;;;;;;-3.54;100.00;100143.31;105022;1256;73741;-56
2024/01/11 03:00:22;;;;;;;31.20;17.20;;;;;;;-3.56;100.00;100138.73;104852;1260;64706;-55
2024/01/11 03:02:49;;;;;;;30.80;17.10;;;;;;;-3.56;100.00;100132.39;104812;1254;73128;-56
2024/01/11 03:05:17;;;;;;;36.20;17.80;;;;;;;-3.56;100.00;100126.63;105023;1254;60384;-55
2024/01/11 03:07:44;;;;;;;33.10;16.70;;;;;;;-3.54;100.00;100118.23;109014;1252;60020;-58
2024/01/11 03:10:11;;;;;;;34.20;17.60;;;;;;;-3.54;100.00;100104.20;105707;1257;73935;-56
2024/01/11 03:12:39;;;;;;;34.30;17.70;;;;;;;-3.52;100.00;100102.66;104782;1254;66453;-56
2024/01/11 03:15:07;;;;;;;33.40;18.00;;;;;;;-3.52;100.00;100095.64;105003;1254;71011;-56
2024/01/11 03:17:34;;;;;;;35.30;17.50;;;;;;;-3.55;100.00;100087.52;105055;1259;60453;-55
2024/01/11 03:20:04;;;;;;;31.10;15.50;;;;;;;-3.56;100.00;100081.89;104794;1253;60538;-55
2024/01/11 03:22:32;;;;;;;28.10;14.40;;;;;;;-3.55;100.00;100071.90;108259;1254;72674;-56
2024/01/11 03:24:59;;;;;;;29.50;15.40;;;;;;;-3.55;100.00;100066.13;104771;1254;67427;-56
2024/01/11 03:27:26;;;;;;;32.00;16.20;;;;;;;-3.53;100.00;100064.23;104814;1257;71139;-55
2024/01/11 03:29:53;;;;;;;29.00;16.50;;;;;;;-3.50;100.00;100062.52;104681;1256;60590;-56
2024/01/11 03:32:21;;;;;;;32.20;16.10;;;;;;;-3.48;100.00;100054.10;104871;1254;60534;-55
2024/01/11 03:34:48;;;;;;;36.00;17.20;;;;;;;-3.46;100.00;100045.02;104867;1259;74363;-56
2024/01/11 03:37:16;;;;;;;31.60;16.20;;;;;;;-3.45;100.00;100037.83;104914;1253;65826;-55
2024/01/11 03:39:43;;;;;;;33.00;15.20;;;;;;;-3.48;100.00;100032.52;104758;1257;71443;-56
2024/01/11 03:42:11;;;;;;;31.40;14.70;;;;;;;-3.51;100.00;100025.30;105058;1260;61666;-54
2024/01/11 03:44:38;;;;;;;27.20;14.40;;;;;;;-3.54;100.00;100020.17;105099;1254;60537;-55
2024/01/11 03:47:06;;;;;;;24.90;13.60;;;;;;;-3.57;100.00;100003.28;105111;1254;72710;-55
2024/01/11 03:49:33;;;;;;;27.30;13.60;;;;;;;-3.58;100.00;99994.87;105281;1253;66842;-54
2024/01/11 03:52:01;;;;;;;26.60;13.20;;;;;;;-3.57;100.00;99989.95;104938;1256;72082;-55
2024/01/11 03:54:28;;;;;;;32.10;15.70;;;;;;;-3.56;100.00;99988.73;104853;1259;60727;-55
2024/01/11 03:56:55;;;;;;;29.00;15.00;;;;;;;-3.55;100.00;99984.02;104750;1259;60508;-55
2024/01/11 03:59:23;;;;;;;28.70;15.30;;;;;;;-3.53;100.00;99976.50;104794;1255;74132;-55
2024/01/11 04:01:51;;;;;;;30.00;14.30;;;;;;;-3.54;100.00;99969.13;104966;1259;66707;-54
2024/01/11 04:04:18;;;;;;;27.90;13.30;;;;;;;-3.55;100.00;99967.36;105459;1259;72448;-55
2024/01/11 04:06:46;;;;;;;27.10;13.50;;;;;;;-3.57;100.00;99960.13;104832;1254;60547;-55
2024/01/11 04:09:13;;;;;;;27.30;12.00;;;;;;;-3.58;100.00;99954.00;104921;1259;60422;-55
2024/01/11 04:11:40;;;;;;;26.00;12.80;;;;;;;-3.57;100.00;99955.40;104959;1259;72631;-55
2024/01/11 04:14:08;;;;;;;25.70;12.10;;;;;;;-3.58;100.00;99944.17;104945;1259;67515;-56
2024/01/11 04:16:41;;;;;;;26.20;12.40;;;;;;;-3.58;100.00;99944.88;105102;1258;72549;-55
2024/01/11 04:19:08;;;;;;;28.00;13.20;;;;;;;-3.55;100.00;99936.83;105296;1253;60556;-54
2024/01/11 04:21:38;;;;;;;26.10;12.60;;;;;;;-3.52;100.00;99942.85;105124;1254;60501;-55
2024/01/11 04:24:09;;;;;;;23.50;12.20;;;;;;;-3.49;100.00;99933.75;104932;1259;74486;-55
2024/01/11 04:26:36;;;;;;;25.90;12.90;;;;;;;-3.47;100.00;99944.09;105007;1253;65659;-55
2024/01/11 04:29:04;;;;;;;28.20;14.00;;;;;;;-3.48;100.00;99947.95;104851;1259;70926;-56
2024/01/11 04:31:32;;;;;;;26.40;13.40;;;;;;;-3.50;100.00;99951.64;106050;1253;60552;-56
2024/01/11 04:33:59;;;;;;;21.70;12.10;;;;;;;-3.49;100.00;99949.02;104623;1254;61064;-55
2024/01/11 04:36:26;;;;;;;24.20;11.50;;;;;;;-3.48;100.00;99950.23;104938;1253;72679;-56
2024/01/11 04:38:54;;;;;;;23.80;10.90;;;;;;;-3.47;100.00;99953.76;104789;1253;67550;-55
2024/01/11 04:41:21;;;;;;;27.00;12.90;;;;;;;-3.43;100.00;99958.02;104806;1253;72727;-55
2024/01/11 04:43:48;;;;;;;27.60;14.10;;;;;;;-3.39;100.00;99952.09;106407;1254;60537;-54
2024/01/11 04:46:16;;;;;;;29.20;15.20;;;;;;;-3.35;100.00;99943.72;104719;1259;60475;-56
2024/01/11 04:48:44;;;;;;;25.90;13.90;;;;;;;-3.33;100.00;99940.25;105251;1254;72849;-55
2024/01/11 04:51:12;;;;;;;28.60;14.10;;;;;;;-3.34;100.00;99943.21;105682;1255;66399;-55
2024/01/11 04:53:40;;;;;;;28.50;15.50;;;;;;;-3.35;100.00;99958.29;104891;1254;72717;-55
2024/01/11 04:56:08;;;;;;;27.40;13.90;;;;;;;-3.36;100.00;99954.23;104944;1254;60756;-55
2024/01/11 04:58:36;;;;;;;28.90;14.10;;;;;;;-3.37;100.00;99952.30;105184;1254;60520;-55
2024/01/11 05:01:05;;;;;;;26.30;13.70;;;;;;;-3.35;100.00;99944.94;104719;1259;74018;-55
2024/01/11 05:03:32;;;;;;;28.40;13.60;;;;;;;-3.34;100.00;99941.63;105450;1256;66188;-55
2024/01/11 05:06:00;;;;;;;24.00;11.70;;;;;;;-3.30;100.00;99948.67;104898;1260;73309;-56
2024/01/11 05:08:29;;;;;;;28.00;14.10;;;;;;;-3.24;100.00;99954.71;104983;1260;60502;-55
2024/01/11 05:10:56;;;;;;;31.80;13.30;;;;;;;-3.19;100.00;99957.23;105589;1255;60642;-55
2024/01/11 05:13:24;;;;;;;28.40;14.20;;;;;;;-3.17;100.00;99947.59;105268;1259;74518;-54
2024/01/11 05:15:51;;;;;;;28.90;14.20;;;;;;;-3.16;100.00;99945.50;104887;1254;67101;-59
2024/01/11 05:18:18;;;;;;;29.60;14.60;;;;;;;-3.17;100.00;99943.56;104831;1259;72978;-54
2024/01/11 05:20:46;;;;;;;31.10;15.50;;;;;;;-3.17;100.00;99944.96;104736;1256;61142;-54
2024/01/11 05:23:13;;;;;;;24.50;13.10;;;;;;;-3.17;100.00;99947.77;104893;1253;60465;-55
2024/01/11 05:25:40;;;;;;;26.60;13.40;;;;;;;-3.16;100.00;99941.81;104994;1254;72647;-55
2024/01/11 05:28:08;;;;;;;24.50;12.50;;;;;;;-3.14;100.00;99939.01;104838;1254;65519;-55
2024/01/11 05:30:35;;;;;;;24.30;12.20;;;;;;;-3.12;100.00;99937.81;104801;1254;72742;-55
2024/01/11 05:33:04;;;;;;;32.20;14.30;;;;;;;-3.07;100.00;99929.77;104771;1260;60640;-56
2024/01/11 05:35:31;;;;;;;31.20;15.10;;;;;;;-3.04;100.00;99930.49;108924;1259;59457;-57
2024/01/11 05:37:59;;;;;;;33.10;16.70;;;;;;;-3.02;100.00;99932.45;108895;1253;74021;-55
2024/01/11 05:40:27;;;;;;;31.70;15.70;;;;;;;-3.00;100.00;99929.84;108839;1253;67779;-56
2024/01/11 05:42:54;;;;;;;31.30;17.60;;;;;;;-3.00;100.00;99937.05;108948;1254;71415;-56
2024/01/11 05:45:21;;;;;;;31.20;16.40;;;;;;;-3.02;100.00;99940.70;108487;1256;59400;-57
2024/01/11 05:48:02;;;;;;;35.80;16.70;;;;;;;-3.04;100.00;99943.31;108933;1259;58849;-56
2024/01/11 05:50:29;;;;;;;32.40;15.90;;;;;;;-3.05;100.00;99934.17;109004;1254;73929;-57
2024/01/11 05:52:57;;;;;;;26.00;14.10;;;;;;;-3.05;100.00;99937.69;105515;1259;67419;-55
2024/01/11 05:55:24;;;;;;;25.50;13.30;;;;;;;-3.04;100.00;99930.32;104876;1257;71410;-55
2024/01/11 05:57:52;;;;;;;28.10;14.20;;;;;;;-3.01;100.00;99932.64;104795;1259;60949;-55
2024/01/11 06:00:19;;;;;;;29.40;14.10;;;;;;;-2.98;100.00;99920.20;105078;1258;60524;-55
2024/01/11 06:02:46;;;;;;;32.60;15.50;;;;;;;-2.95;100.00;99918.45;105057;1254;72652;-54
2024/01/11 06:05:15;;;;;;;30.60;15.10;;;;;;;-2.94;100.00;99919.70;105235;1259;65956;-55
2024/01/11 06:07:42;;;;;;;33.40;15.10;;;;;;;-2.95;100.00;99917.40;105144;1259;72707;-55
2024/01/11 06:10:10;;;;;;;31.90;15.80;;;;;;;-2.96;100.00;99915.29;105060;1259;60683;-55
2024/01/11 06:12:37;;;;;;;27.90;14.80;;;;;;;-2.98;100.00;99919.33;105099;1259;60578;-55
2024/01/11 06:15:05;;;;;;;32.00;16.20;;;;;;;-3.01;100.00;99915.42;104845;1259;73903;-55
2024/01/11 06:17:32;;;;;;;28.60;14.20;;;;;;;-3.04;100.00;99913.83;105100;1259;67241;-54
2024/01/11 06:20:00;;;;;;;32.60;15.10;;;;;;;-3.05;100.00;99894.14;106966;1254;71250;-56
2024/01/11 06:22:27;;;;;;;25.30;12.00;;;;;;;-3.04;100.00;99861.86;104968;1259;60508;-55
2024/01/11 06:24:54;;;;;;;27.00;14.40;;;;;;;-3.02;100.00;99844.32;105172;1256;60714;-55
2024/01/11 06:27:22;;;;;;;30.60;15.40;;;;;;;-2.98;100.00;99833.46;104874;1257;74115;-56
2024/01/11 06:29:49;;;;;;;29.60;15.40;;;;;;;-2.95;100.00;99838.05;104816;1255;67062;-55
2024/01/11 06:32:16;;;;;;;32.90;15.90;;;;;;;-2.91;100.00;99857.92;104865;1259;72696;-56
2024/01/11 06:34:45;;;;;;;33.30;15.90;;;;;;;-2.91;100.00;99866.54;105037;1254;60546;-55
2024/01/11 06:37:13;;;;;;;33.60;16.30;;;;;;;-2.94;100.00;99864.73;104921;1258;60448;-56
2024/01/11 06:39:40;;;;;;;31.80;16.50;;;;;;;-2.97;100.00;99861.20;104902;1259;71864;-55
2024/01/11 06:42:08;;;;;;;32.10;15.50;;;;;;;-2.98;100.00;99872.27;104761;1259;65017;-56
2024/01/11 06:44:35;;;;;;;30.00;14.50;;;;;;;-2.97;100.00;99865.05;104875;1257;71469;-56
2024/01/11 06:47:05;;;;;;;30.10;14.70;;;;;;;-2.97;100.00;99867.52;104776;1264;60704;-55
2024/01/11 06:49:33;;;;;;;28.10;14.10;;;;;;;-2.96;100.00;99874.37;106668;1256;60466;-55
2024/01/11 06:52:02;;;;;;;36.30;17.10;;;;;;;-2.95;100.00;99862.27;105454;1258;73890;-55
2024/01/11 06:54:31;;;;;;;35.20;15.50;;;;;;;-2.93;100.00;99858.95;105225;1261;64840;-55
2024/01/11 06:56:58;;;;;;;35.00;17.00;;;;;;;-2.92;100.00;99858.45;105097;1254;71413;-55
2024/01/11 06:59:25;;;;;;;34.60;18.40;;;;;;;-2.91;100.00;99863.72;105333;1256;60463;-55
2024/01/11 07:01:53;;;;;;;40.90;18.80;;;;;;;-2.95;100.00;99864.02;105103;1254;60511;-54
2024/01/11 07:04:20;;;;;;;37.90;17.70;;;;;;;-2.98;100.00;99864.36;105053;1254;74337;-57
2024/01/11 07:06:49;;;;;;;36.60;17.10;;;;;;;-3.02;100.00;99860.64;105118;1260;67066;-54
2024/01/11 07:09:17;;;;;;;33.20;15.60;;;;;;;-3.07;100.00;99853.77;105818;1255;70685;-57
2024/01/11 07:11:44;;;;;;;29.90;14.70;;;;;;;-3.05;100.00;99848.86;105124;1265;61988;-54
2024/01/11 07:14:12;;;;;;;32.20;15.30;;;;;;;-3.01;100.00;99842.22;105249;1256;60545;-56
2024/01/11 07:16:39;;;;;;;36.90;17.60;;;;;;;-2.99;100.00;99842.95;105037;1260;73059;-55
2024/01/11 07:19:06;;;;;;;37.30;18.00;;;;;;;-2.96;100.00;99843.83;105042;1259;67491;-55
2024/01/11 07:21:34;;;;;;;39.10;18.80;;;;;;;-2.95;100.00;99846.48;104927;1259;72751;-54
2024/01/11 07:24:01;;;;;;;38.30;18.80;;;;;;;-2.97;100.00;99840.31;104771;1260;60505;-55
2024/01/11 07:26:29;;;;;;;39.70;19.10;;;;;;;-2.99;100.00;99845.93;104946;1258;60312;-55
2024/01/11 07:28:56;;;;;;;33.00;15.50;;;;;;;-3.02;100.00;99838.52;104942;1257;73946;-55
2024/01/11 07:31:24;;;;;;;36.10;16.50;;;;;;;-3.02;100.00;99834.66;104815;1262;65423;-55
2024/01/11 07:33:51;;;;;;;37.10;17.90;;;;;;;-3.03;100.00;99832.89;105049;1256;73198;-54
2024/01/11 07:36:19;;;;;;;37.40;18.00;;;;;;;-3.02;100.00;99825.55;104945;1260;60894;-55
2024/01/11 07:38:46;;;;;;;33.30;15.90;;;;;;;-2.99;100.00;99821.00;105054;1260;60514;-55
2024/01/11 07:41:13;;;;;;;39.30;18.50;;;;;;;-2.96;100.00;99817.84;104910;1260;72970;-55
2024/01/11 07:43:41;;;;;;;41.40;19.80;;;;;;;-2.95;100.00;99811.70;104679;1258;66716;-55
2024/01/11 07:46:20;;;;;;;35.90;18.70;;;;;;;-2.94;100.00;99815.05;104946;1254;71427;-56
2024/01/11 07:49:03;;;;;;;37.30;18.80;;;;;;;-2.95;100.00;99818.73;104750;1259;60501;-56
2024/01/11 07:51:31;;;;;;;38.40;18.50;;;;;;;-2.97;100.00;99810.98;105050;1261;60776;-57
2024/01/11 07:53:58;;;;;;;39.90;19.30;;;;;;;-2.99;100.00;99807.48;104896;1255;73881;-55
2024/01/11 07:56:26;;;;;;;38.10;18.40;;;;;;;-2.99;100.00;99813.10;104913;1259;66161;-55
2024/01/11 07:58:53;;;;;;;35.70;17.60;;;;;;;-2.98;100.00;99804.49;104949;1259;71776;-57
2024/01/11 08:01:21;;;;;;;41.20;18.00;;;;;;;-2.97;100.00;99802.04;104974;1260;60556;-57
2024/01/11 08:03:51;;;;;;;35.50;17.90;;;;;;;-2.94;100.00;99795.92;105028;1259;60465;-56
2024/01/11 08:06:20;;;;;;;39.60;19.10;;;;;;;-2.90;100.00;99802.64;104905;1257;76372;-55
2024/01/11 08:08:51;;;;;;;42.60;20.30;;;;;;;-2.90;100.00;99800.17;105017;1260;65208;-55
2024/01/11 08:11:20;;;;;;;38.50;19.00;;;;;;;-2.89;100.00;99797.38;105033;1259;71251;-55
2024/01/11 08:13:48;;;;;;;41.60;21.20;;;;;;;-2.88;100.00;99806.14;104995;1260;60550;-55
2024/01/11 08:16:16;;;;;;;43.30;21.80;;;;;;;-2.86;100.00;99804.92;104965;1260;60524;-56
2024/01/11 08:18:44;;;;;;;40.10;20.80;;;;;;;-2.87;100.00;99804.56;105037;1266;73821;-55
2024/01/11 08:21:11;;;;;;;42.90;18.10;;;;;;;-2.89;100.00;99807.19;105138;1255;67100;-53
2024/01/11 08:23:47;;;;;;;37.30;18.20;;;;;;;-2.89;100.00;99807.90;105018;1260;72705;-55
2024/01/11 08:26:15;;;;;;;34.40;16.70;;;;;;;-2.89;100.00;99805.25;107341;1254;60542;-55
2024/01/11 08:28:43;;;;;;;35.70;17.80;;;;;;;-2.88;100.00;99810.70;105384;1254;225409;-54
2024/01/11 08:33:46;;;;;;;32.90;18.10;;;;;;;-2.82;100.00;99862.73;101940;1295;602307;-56
2024/01/11 08:36:14;;;;;;;37.90;18.10;;;;;;;-2.77;100.00;99869.95;104002;1267;59341;-55
2024/01/11 08:38:42;;;;;;;36.70;17.50;;;;;;;-2.73;100.00;99859.12;104116;1266;59260;-56
2024/01/11 08:41:09;;;;;;;36.00;17.40;;;;;;;-2.72;100.00;99851.02;108198;1266;74297;-57
2024/01/11 08:43:37;;;;;;;34.40;16.50;;;;;;;-2.74;100.00;99842.42;108295;1267;66994;-56
2024/01/11 08:46:04;;;;;;;36.10;17.40;;;;;;;-2.75;100.00;99838.02;108210;1267;72264;-56
2024/01/11 08:48:31;;;;;;;38.00;17.70;;;;;;;-2.77;100.00;99826.23;104509;1269;168981;-55
2024/01/11 08:50:59;;;;;;;33.70;17.10;;;;;;;-2.77;100.00;99822.36;108300;1264;61122;-57
2024/01/11 08:53:26;;;;;;;33.70;16.60;;;;;;;-2.76;100.00;99825.37;108512;1264;71044;-57
2024/01/11 08:55:54;;;;;;;31.90;15.20;;;;;;;-2.74;100.00;99823.62;107598;1264;67255;-55
2024/01/11 08:58:21;;;;;;;34.10;15.80;;;;;;;-2.72;100.00;99827.48;104281;1267;71468;-56
2024/01/11 09:00:48;;;;;;;31.90;16.20;;;;;;;-2.67;100.00;99826.47;104076;1264;59775;-56
2024/01/11 09:03:16;;;;;;;30.40;14.90;;;;;;;-2.63;100.00;99818.22;108313;1264;58809;-56
2024/01/11 09:05:45;;;;;;;28.20;15.10;;;;;;;-2.61;100.00;99816.66;106223;1264;72868;-56
2024/01/11 09:08:12;;;;;;;25.20;14.10;;;;;;;-2.58;100.00;99809.83;104264;1268;66112;-55
2024/01/11 09:10:41;;;;;;;30.90;16.70;;;;;;;-2.57;100.00;99807.38;107521;1266;71243;-56
2024/01/11 09:13:09;;;;;;;32.70;16.20;;;;;;;-2.57;100.00;99809.48;104139;1267;59573;-55
2024/01/11 09:15:39;;;;;;;26.60;14.40;;;;;;;-2.58;100.00;99811.95;104736;1267;59762;-56
2024/01/11 09:18:06;;;;;;;30.60;13.40;;;;;;;-2.57;100.00;99800.52;104340;1266;73138;-55
2024/01/11 09:20:35;;;;;;;29.20;13.80;;;;;;;-2.55;100.00;99796.14;104696;1266;67224;-56
2024/01/11 09:23:03;;;;;;;26.80;13.30;;;;;;;-2.52;100.00;99791.05;104869;1257;70457;-56
2024/01/11 09:25:31;;;;;;;26.40;13.40;;;;;;;-2.48;100.00;99784.23;104866;1257;59656;-55
2024/01/11 09:27:59;;;;;;;29.50;14.50;;;;;;;-2.43;100.00;99780.56;104785;1256;59638;-56
2024/01/11 09:30:26;;;;;;;29.70;14.70;;;;;;;-2.37;100.00;99780.58;104865;1256;73137;-56
2024/01/11 09:32:55;;;;;;;32.40;15.30;;;;;;;-2.33;100.00;99776.02;104705;1261;66884;-56
2024/01/11 09:35:23;;;;;;;29.80;15.30;;;;;;;-2.33;100.00;99768.13;104606;1263;71546;-55
2024/01/11 09:37:51;;;;;;;31.20;15.80;;;;;;;-2.34;100.00;99761.08;104916;1257;59726;-56
2024/01/11 09:40:18;;;;;;;31.50;15.50;;;;;;;-2.36;100.00;99760.89;104717;1257;59580;-56
2024/01/11 09:42:45;;;;;;;33.30;15.50;;;;;;;-2.38;100.00;99753.52;104823;1257;73117;-54
2024/01/11 09:45:15;;;;;;;35.50;15.10;;;;;;;-2.39;100.00;99748.77;104762;1257;66362;-56
2024/01/11 09:47:46;;;;;;;31.20;14.50;;;;;;;-2.41;100.00;99752.46;105012;1257;70681;-56
2024/01/11 09:50:17;;;;;;;26.40;13.20;;;;;;;-2.42;100.00;99742.08;107105;1256;62303;-56
2024/01/11 09:52:48;;;;;;;30.70;15.00;;;;;;;-2.41;100.00;99739.80;104934;1257;59797;-55
2024/01/11 09:55:16;;;;;;;30.70;14.30;;;;;;;-2.38;100.00;99736.28;105218;1257;73131;-56
2024/01/11 09:57:45;;;;;;;29.60;16.00;;;;;;;-2.34;100.00;99728.04;104770;1260;67085;-56
2024/01/11 10:00:13;;;;;;;26.90;15.10;;;;;;;-2.27;100.00;99714.88;106024;1257;72726;-56
2024/01/11 10:02:41;;;;;;;30.70;15.10;;;;;;;-2.21;100.00;99712.42;105095;1257;60369;-55
2024/01/11 10:05:08;;;;;;;28.30;14.40;;;;;;;-2.17;100.00;99707.34;104916;1260;60135;-55
2024/01/11 10:07:37;;;;;;;38.60;18.50;;;;;;;-2.14;100.00;99703.48;104955;1259;71485;-55
2024/01/11 10:10:07;;;;;;;31.40;17.50;;;;;;;-2.14;100.00;99702.61;105256;1262;67112;-55
2024/01/11 10:12:35;;;;;;;34.60;18.20;;;;;;;-2.15;100.00;99699.27;105728;1259;71943;-55
2024/01/11 10:15:09;;;;;;;39.10;18.90;;;;;;;-2.15;100.00;99696.27;104891;1256;59711;-56
2024/01/11 10:17:41;;;;;;;;;;;;;;;-2.16;100.00;99692.40;105065;1254;60467;-55
2024/01/11 10:20:16;;;;;;;33.30;15.70;;;;;;;-2.17;100.00;99689.05;105312;1260;73382;-55
2024/01/11 10:22:45;;;;;;;33.40;15.10;;;;;;;-2.17;100.00;99689.94;105564;1254;66216;-54
2024/01/11 10:25:13;;;;;;;29.60;15.90;;;;;;;-2.15;100.00;99685.91;104364;1257;71517;-53
2024/01/11 10:27:42;;;;;;;32.50;16.70;;;;;;;-2.14;100.00;99683.45;105721;1254;59739;-55
2024/01/11 10:30:12;;;;;;;32.20;16.40;;;;;;;-2.12;100.00;99671.99;105048;1258;59759;-55
2024/01/11 10:32:40;;;;;;;40.40;19.60;;;;;;;-2.12;100.00;99668.85;105120;1257;73446;-55
2024/01/11 10:35:08;;;;;;;36.80;19.40;;;;;;;-2.14;100.00;99672.89;104843;1256;66832;-55
2024/01/11 10:37:35;;;;;;;37.30;20.10;;;;;;;-2.14;100.00;99672.02;105183;1255;71731;-55
2024/01/11 10:40:09;;;;;;;43.00;21.50;;;;;;;-2.16;100.00;99665.16;104848;1255;59778;-55
2024/01/11 10:42:42;;;;;;;37.90;16.70;;;;;;;-2.17;100.00;99656.53;104990;1255;61012;-55
2024/01/11 10:45:15;;;;;;;34.90;18.80;;;;;;;-2.20;100.00;99649.48;104999;1254;73492;-56
2024/01/11 10:48:04;;;;;;;33.40;16.20;;;;;;;-2.20;100.00;99641.05;105107;1254;66943;-55
2024/01/11 10:50:39;;;;;;;30.80;15.50;;;;;;;-2.18;100.00;99644.93;105224;1259;71249;-56
2024/01/11 10:53:25;;;;;;;28.30;15.80;;;;;;;-2.16;100.00;99648.98;105041;1255;59893;-56
2024/01/11 10:55:53;;;;;;;30.50;14.20;;;;;;;-2.12;100.00;99646.52;105198;1254;59585;-56
2024/01/11 10:58:21;;;;;;;30.70;17.80;;;;;;;-2.10;100.00;99648.10;105819;1259;73484;-55
2024/01/11 11:00:49;;;;;;;28.80;15.60;;;;;;;-2.09;100.00;99642.48;105160;1254;66190;-55
2024/01/11 11:03:17;;;;;;;34.90;18.40;;;;;;;-2.07;100.00;99641.42;105197;1254;73211;-55
2024/01/11 11:05:44;;;;;;;30.90;17.50;;;;;;;-2.09;100.00;99641.95;104881;1254;60013;-56